SWA2973 KLGB-KSMF
Flight info
| Callsign | SWA2973 |
|---|---|
| Flight time | 1h 0m |
| Altitude | 38000 |
| Route | TOPMM5 CSTRO NURAY SUUTR4 |
| Aircraft | B738/M-SADE2E3GIJ4RWZ/LB1D1 |
Departure
| Time | 2026-05-05 01:06 |
|---|---|
| Airport | Long Beach International Airport (KLGB) |
Arrival
| Time | 2026-05-05 02:06 |
|---|---|
| Airport | Sacramento International Airport (KSMF) |
| Time | Latitude | Longitude | Altitude | Speed | Heading |
|---|---|---|---|---|---|
| 2026-05-05 00:42 | 33.81820 | -118.14610 | 45 ft | 0 kts | 90° |
| 2026-05-05 00:55 | 33.81820 | -118.14616 | 44 ft | 2 kts | 90° |
| 2026-05-05 00:56 | 33.81820 | -118.14633 | 44 ft | 2 kts | 90° |
| 2026-05-05 00:56 | 33.81820 | -118.14651 | 44 ft | 2 kts | 90° |
| 2026-05-05 00:56 | 33.81820 | -118.14670 | 45 ft | 2 kts | 90° |
| 2026-05-05 00:56 | 33.81821 | -118.14687 | 45 ft | 2 kts | 118° |
| 2026-05-05 00:57 | 33.81832 | -118.14700 | 45 ft | 2 kts | 164° |
| 2026-05-05 00:57 | 33.81839 | -118.14701 | 45 ft | 1 kts | 185° |
| 2026-05-05 00:57 | 33.81844 | -118.14700 | 45 ft | 0 kts | 180° |
| 2026-05-05 00:59 | 33.81843 | -118.14700 | 45 ft | 0 kts | 180° |
| 2026-05-05 00:59 | 33.81842 | -118.14700 | 45 ft | 0 kts | 179° |
| 2026-05-05 01:00 | 33.81818 | -118.14700 | 45 ft | 6 kts | 180° |
| 2026-05-05 01:00 | 33.81766 | -118.14700 | 45 ft | 6 kts | 180° |
| 2026-05-05 01:00 | 33.81723 | -118.14700 | 44 ft | 7 kts | 180° |
| 2026-05-05 01:00 | 33.81659 | -118.14700 | 44 ft | 11 kts | 179° |
| 2026-05-05 01:01 | 33.81571 | -118.14693 | 44 ft | 13 kts | 152° |
| 2026-05-05 01:01 | 33.81498 | -118.14610 | 43 ft | 14 kts | 134° |
| 2026-05-05 01:01 | 33.81423 | -118.14522 | 42 ft | 15 kts | 138° |
| 2026-05-05 01:01 | 33.81345 | -118.14429 | 40 ft | 17 kts | 135° |
| 2026-05-05 01:02 | 33.81256 | -118.14312 | 39 ft | 19 kts | 135° |
| 2026-05-05 01:02 | 33.81160 | -118.14201 | 38 ft | 15 kts | 135° |
| 2026-05-05 01:02 | 33.81089 | -118.14120 | 37 ft | 14 kts | 135° |
| 2026-05-05 01:02 | 33.81018 | -118.14032 | 36 ft | 14 kts | 135° |
| 2026-05-05 01:03 | 33.80942 | -118.13943 | 35 ft | 15 kts | 135° |
| 2026-05-05 01:03 | 33.80864 | -118.13849 | 35 ft | 16 kts | 135° |
| 2026-05-05 01:03 | 33.80797 | -118.13769 | 34 ft | 9 kts | 144° |
| 2026-05-05 01:03 | 33.80790 | -118.13763 | 34 ft | 0 kts | 148° |
| 2026-05-05 01:04 | 33.80776 | -118.13757 | 34 ft | 4 kts | 166° |
| 2026-05-05 01:04 | 33.80736 | -118.13780 | 34 ft | 9 kts | 225° |
| 2026-05-05 01:05 | 33.80715 | -118.13845 | 34 ft | 7 kts | 295° |
| 2026-05-05 01:05 | 33.80806 | -118.13961 | 35 ft | 45 kts | 314° |
| 2026-05-05 01:05 | 33.81202 | -118.14440 | 40 ft | 111 kts | 314° |
| 2026-05-05 01:05 | 33.81890 | -118.15260 | 74 ft | 160 kts | 311° |
| 2026-05-05 01:06 | 33.82721 | -118.16191 | 626 ft | 168 kts | 313° |
| 2026-05-05 01:06 | 33.83546 | -118.17217 | 1341 ft | 171 kts | 309° |
| 2026-05-05 01:06 | 33.84428 | -118.18318 | 1656 ft | 195 kts | 310° |
| 2026-05-05 01:06 | 33.85368 | -118.19531 | 2288 ft | 200 kts | 307° |
| 2026-05-05 01:07 | 33.86000 | -118.21018 | 2814 ft | 206 kts | 277° |
| 2026-05-05 01:07 | 33.86093 | -118.22751 | 3593 ft | 206 kts | 273° |
| 2026-05-05 01:07 | 33.86263 | -118.24474 | 4271 ft | 212 kts | 279° |
| 2026-05-05 01:07 | 33.86560 | -118.26238 | 4841 ft | 224 kts | 281° |
| 2026-05-05 01:08 | 33.86913 | -118.28175 | 5224 ft | 246 kts | 282° |
| 2026-05-05 01:08 | 33.87299 | -118.30244 | 6035 ft | 257 kts | 282° |
| 2026-05-05 01:08 | 33.87691 | -118.32387 | 6908 ft | 265 kts | 282° |
| 2026-05-05 01:08 | 33.88096 | -118.34536 | 7911 ft | 268 kts | 282° |
| 2026-05-05 01:09 | 33.88509 | -118.36668 | 8745 ft | 274 kts | 282° |
| 2026-05-05 01:09 | 33.88942 | -118.38896 | 9731 ft | 275 kts | 282° |
| 2026-05-05 01:09 | 33.89387 | -118.41137 | 10623 ft | 278 kts | 283° |
| 2026-05-05 01:09 | 33.90106 | -118.43328 | 11498 ft | 284 kts | 298° |
| 2026-05-05 01:10 | 33.91369 | -118.45159 | 12320 ft | 293 kts | 317° |
| 2026-05-05 01:10 | 33.93120 | -118.46491 | 13125 ft | 300 kts | 328° |
| 2026-05-05 01:10 | 33.94986 | -118.47671 | 13855 ft | 305 kts | 327° |
| 2026-05-05 01:10 | 33.96868 | -118.48916 | 14627 ft | 308 kts | 326° |
| 2026-05-05 01:11 | 33.98791 | -118.50169 | 15323 ft | 315 kts | 330° |
| 2026-05-05 01:11 | 34.00844 | -118.51224 | 16056 ft | 321 kts | 334° |
| 2026-05-05 01:11 | 34.02946 | -118.52206 | 16789 ft | 323 kts | 333° |
| 2026-05-05 01:11 | 34.05065 | -118.53232 | 17172 ft | 337 kts | 333° |
| 2026-05-05 01:12 | 34.07333 | -118.54352 | 17273 ft | 360 kts | 333° |
| 2026-05-05 01:12 | 34.09759 | -118.55533 | 17522 ft | 377 kts | 335° |
| 2026-05-05 01:12 | 34.12284 | -118.56527 | 17977 ft | 389 kts | 339° |
| 2026-05-05 01:12 | 34.14944 | -118.57444 | 18461 ft | 397 kts | 340° |
| 2026-05-05 01:13 | 34.17629 | -118.58383 | 19045 ft | 401 kts | 339° |
| 2026-05-05 01:13 | 34.20325 | -118.59328 | 19702 ft | 403 kts | 339° |
| 2026-05-05 01:13 | 34.23065 | -118.60313 | 20321 ft | 406 kts | 338° |
| 2026-05-05 01:13 | 34.25762 | -118.61285 | 20989 ft | 406 kts | 338° |
| 2026-05-05 01:14 | 34.28510 | -118.62273 | 21471 ft | 411 kts | 338° |
| 2026-05-05 01:14 | 34.31300 | -118.63274 | 21985 ft | 415 kts | 338° |
| 2026-05-05 01:14 | 34.34083 | -118.64275 | 22532 ft | 417 kts | 337° |
| 2026-05-05 01:14 | 34.36907 | -118.65287 | 22951 ft | 422 kts | 336° |
| 2026-05-05 01:15 | 34.39780 | -118.66336 | 23535 ft | 424 kts | 336° |
| 2026-05-05 01:15 | 34.42640 | -118.67286 | 24077 ft | 428 kts | 341° |
| 2026-05-05 01:15 | 34.45609 | -118.67918 | 24660 ft | 431 kts | 343° |
| 2026-05-05 01:15 | 34.48632 | -118.68497 | 24902 ft | 440 kts | 343° |
| 2026-05-05 01:16 | 34.51728 | -118.69119 | 25152 ft | 447 kts | 342° |
| 2026-05-05 01:16 | 34.54848 | -118.69741 | 25563 ft | 450 kts | 342° |
| 2026-05-05 01:16 | 34.57978 | -118.70353 | 26058 ft | 450 kts | 342° |
| 2026-05-05 01:16 | 34.61082 | -118.70958 | 26352 ft | 456 kts | 342° |
| 2026-05-05 01:17 | 34.64281 | -118.71593 | 26493 ft | 465 kts | 342° |
| 2026-05-05 01:17 | 34.67525 | -118.72258 | 26786 ft | 468 kts | 340° |
| 2026-05-05 01:17 | 34.70641 | -118.73210 | 27410 ft | 456 kts | 333° |
| 2026-05-05 01:17 | 34.73627 | -118.74491 | 27814 ft | 449 kts | 326° |
| 2026-05-05 01:18 | 34.76464 | -118.76259 | 27961 ft | 449 kts | 320° |
| 2026-05-05 01:18 | 34.79198 | -118.78156 | 28324 ft | 450 kts | 320° |
| 2026-05-05 01:18 | 34.81958 | -118.80019 | 28822 ft | 450 kts | 320° |
| 2026-05-05 01:18 | 34.84744 | -118.81905 | 28996 ft | 456 kts | 320° |
| 2026-05-05 01:19 | 34.87509 | -118.83808 | 29225 ft | 460 kts | 319° |
| 2026-05-05 01:19 | 34.90332 | -118.85739 | 29644 ft | 460 kts | 320° |
| 2026-05-05 01:19 | 34.93164 | -118.87682 | 29909 ft | 463 kts | 319° |
| 2026-05-05 01:19 | 34.96020 | -118.89652 | 30174 ft | 466 kts | 319° |
| 2026-05-05 01:20 | 34.98848 | -118.91612 | 30487 ft | 467 kts | 319° |
| 2026-05-05 01:20 | 35.01699 | -118.93591 | 30701 ft | 471 kts | 320° |
| 2026-05-05 01:20 | 35.04588 | -118.95594 | 30903 ft | 474 kts | 320° |
| 2026-05-05 01:20 | 35.07501 | -118.97614 | 31261 ft | 474 kts | 320° |
| 2026-05-05 01:21 | 35.10373 | -118.99603 | 31629 ft | 472 kts | 320° |
| 2026-05-05 01:21 | 35.13241 | -119.01592 | 32009 ft | 470 kts | 321° |
| 2026-05-05 01:21 | 35.16119 | -119.03589 | 32191 ft | 473 kts | 321° |
| 2026-05-05 01:21 | 35.19000 | -119.05583 | 32526 ft | 472 kts | 321° |
| 2026-05-05 01:22 | 35.21908 | -119.07603 | 32697 ft | 475 kts | 321° |
| 2026-05-05 01:22 | 35.24781 | -119.09597 | 32997 ft | 474 kts | 322° |
| 2026-05-05 01:22 | 35.27689 | -119.11620 | 33308 ft | 473 kts | 321° |
| 2026-05-05 01:22 | 35.30540 | -119.13602 | 33726 ft | 470 kts | 322° |
| 2026-05-05 01:23 | 35.33419 | -119.15608 | 34042 ft | 470 kts | 322° |
| 2026-05-05 01:23 | 35.36291 | -119.17609 | 34302 ft | 470 kts | 322° |
| 2026-05-05 01:23 | 35.39161 | -119.19605 | 34702 ft | 468 kts | 323° |
| 2026-05-05 01:23 | 35.42065 | -119.21462 | 34895 ft | 474 kts | 327° |
| 2026-05-05 01:24 | 35.45148 | -119.23061 | 35249 ft | 477 kts | 331° |
| 2026-05-05 01:24 | 35.48309 | -119.24494 | 35423 ft | 480 kts | 333° |
| 2026-05-05 01:24 | 35.51484 | -119.25895 | 35688 ft | 480 kts | 333° |
| 2026-05-05 01:24 | 35.54666 | -119.27267 | 35887 ft | 482 kts | 334° |
| 2026-05-05 01:25 | 35.57865 | -119.28612 | 36193 ft | 481 kts | 334° |
| 2026-05-05 01:25 | 35.61096 | -119.29953 | 36350 ft | 483 kts | 335° |
| 2026-05-05 01:25 | 35.64298 | -119.31278 | 36647 ft | 481 kts | 335° |
| 2026-05-05 01:25 | 35.67486 | -119.32588 | 36805 ft | 483 kts | 335° |
| 2026-05-05 01:26 | 35.70742 | -119.33914 | 37058 ft | 482 kts | 335° |
| 2026-05-05 01:26 | 35.73915 | -119.35198 | 37351 ft | 480 kts | 335° |
| 2026-05-05 01:26 | 35.77145 | -119.36509 | 37494 ft | 481 kts | 336° |
| 2026-05-05 01:26 | 35.80364 | -119.37816 | 37678 ft | 482 kts | 336° |
| 2026-05-05 01:27 | 35.83559 | -119.39111 | 37912 ft | 481 kts | 336° |
| 2026-05-05 01:27 | 35.86766 | -119.40412 | 37965 ft | 483 kts | 336° |
| 2026-05-05 01:27 | 35.93223 | -119.43024 | 37966 ft | 484 kts | 336° |
| 2026-05-05 01:28 | 35.99654 | -119.45625 | 37969 ft | 479 kts | 336° |
| 2026-05-05 01:28 | 36.06061 | -119.48235 | 37967 ft | 481 kts | 336° |
| 2026-05-05 01:29 | 36.12445 | -119.50838 | 37957 ft | 484 kts | 336° |
| 2026-05-05 01:29 | 36.18905 | -119.53465 | 37961 ft | 482 kts | 336° |
| 2026-05-05 01:30 | 36.25326 | -119.56089 | 37986 ft | 479 kts | 336° |
| 2026-05-05 01:30 | 36.31707 | -119.58703 | 37988 ft | 479 kts | 336° |
| 2026-05-05 01:31 | 36.38071 | -119.61311 | 37993 ft | 479 kts | 337° |
| 2026-05-05 01:31 | 36.44475 | -119.63942 | 37990 ft | 482 kts | 337° |
| 2026-05-05 01:32 | 36.50856 | -119.66557 | 37995 ft | 480 kts | 336° |
| 2026-05-05 01:32 | 36.57228 | -119.69179 | 37999 ft | 477 kts | 335° |
| 2026-05-05 01:33 | 36.63057 | -119.72930 | 38004 ft | 467 kts | 321° |
| 2026-05-05 01:33 | 36.68637 | -119.77362 | 37998 ft | 470 kts | 322° |
| 2026-05-05 01:34 | 36.74195 | -119.81719 | 37997 ft | 469 kts | 322° |
| 2026-05-05 01:34 | 36.79708 | -119.86070 | 38003 ft | 465 kts | 322° |
| 2026-05-05 01:35 | 36.85243 | -119.90435 | 38007 ft | 467 kts | 322° |
| 2026-05-05 01:35 | 36.90770 | -119.94829 | 37987 ft | 468 kts | 323° |
| 2026-05-05 01:36 | 36.93536 | -119.97021 | 37694 ft | 464 kts | 323° |
| 2026-05-05 01:36 | 36.96244 | -119.99175 | 37092 ft | 461 kts | 323° |
| 2026-05-05 01:36 | 36.98990 | -120.01369 | 36520 ft | 459 kts | 323° |
| 2026-05-05 01:36 | 37.01689 | -120.03529 | 35911 ft | 457 kts | 324° |
| 2026-05-05 01:37 | 37.04378 | -120.05690 | 35258 ft | 455 kts | 324° |
| 2026-05-05 01:37 | 37.07062 | -120.07834 | 34627 ft | 455 kts | 324° |
| 2026-05-05 01:37 | 37.09759 | -120.09988 | 34032 ft | 454 kts | 325° |
| 2026-05-05 01:37 | 37.12419 | -120.12118 | 33413 ft | 454 kts | 326° |
| 2026-05-05 01:38 | 37.15100 | -120.14283 | 32614 ft | 457 kts | 327° |
| 2026-05-05 01:38 | 37.17804 | -120.16518 | 31841 ft | 459 kts | 327° |
| 2026-05-05 01:38 | 37.20433 | -120.18792 | 31098 ft | 461 kts | 327° |
| 2026-05-05 01:38 | 37.23045 | -120.21209 | 30352 ft | 460 kts | 326° |
| 2026-05-05 01:39 | 37.25594 | -120.23686 | 29826 ft | 454 kts | 327° |
| 2026-05-05 01:39 | 37.28106 | -120.26115 | 29091 ft | 450 kts | 328° |
| 2026-05-05 01:39 | 37.30686 | -120.28445 | 28437 ft | 443 kts | 330° |
| 2026-05-05 01:39 | 37.33247 | -120.30583 | 27876 ft | 435 kts | 333° |
| 2026-05-05 01:40 | 37.35837 | -120.32613 | 27097 ft | 432 kts | 334° |
| 2026-05-05 01:40 | 37.38430 | -120.34464 | 26414 ft | 424 kts | 339° |
| 2026-05-05 01:40 | 37.41124 | -120.35970 | 25768 ft | 416 kts | 343° |
| 2026-05-05 01:40 | 37.43794 | -120.37468 | 25207 ft | 412 kts | 339° |
| 2026-05-05 01:41 | 37.46307 | -120.39287 | 24441 ft | 415 kts | 332° |
| 2026-05-05 01:41 | 37.48621 | -120.41449 | 24058 ft | 408 kts | 328° |
| 2026-05-05 01:41 | 37.50873 | -120.43640 | 23265 ft | 407 kts | 328° |
| 2026-05-05 01:41 | 37.53154 | -120.45809 | 22654 ft | 403 kts | 328° |
| 2026-05-05 01:42 | 37.55375 | -120.47946 | 22090 ft | 400 kts | 327° |
| 2026-05-05 01:42 | 37.57610 | -120.50128 | 21512 ft | 397 kts | 327° |
| 2026-05-05 01:42 | 37.59784 | -120.52277 | 21027 ft | 391 kts | 327° |
| 2026-05-05 01:42 | 37.61895 | -120.54366 | 20975 ft | 377 kts | 327° |
| 2026-05-05 01:43 | 37.63969 | -120.56434 | 20969 ft | 380 kts | 327° |
| 2026-05-05 01:43 | 37.66122 | -120.58577 | 20936 ft | 392 kts | 326° |
| 2026-05-05 01:43 | 37.68286 | -120.60741 | 20386 ft | 388 kts | 326° |
| 2026-05-05 01:43 | 37.70418 | -120.62870 | 19789 ft | 377 kts | 326° |
| 2026-05-05 01:44 | 37.72465 | -120.64923 | 19060 ft | 373 kts | 326° |
| 2026-05-05 01:44 | 37.74490 | -120.66956 | 18688 ft | 368 kts | 325° |
| 2026-05-05 01:44 | 37.76529 | -120.68999 | 18451 ft | 373 kts | 324° |
| 2026-05-05 01:44 | 37.78592 | -120.71075 | 18181 ft | 371 kts | 324° |
| 2026-05-05 01:45 | 37.80603 | -120.73103 | 17948 ft | 367 kts | 324° |
| 2026-05-05 01:45 | 37.82611 | -120.75129 | 17664 ft | 358 kts | 324° |
| 2026-05-05 01:45 | 37.84542 | -120.77100 | 17275 ft | 357 kts | 323° |
| 2026-05-05 01:45 | 37.86460 | -120.79149 | 16949 ft | 359 kts | 321° |
| 2026-05-05 01:46 | 37.88316 | -120.81277 | 16724 ft | 356 kts | 319° |
| 2026-05-05 01:46 | 37.90090 | -120.83575 | 16642 ft | 357 kts | 315° |
| 2026-05-05 01:46 | 37.91698 | -120.85879 | 16488 ft | 347 kts | 313° |
| 2026-05-05 01:46 | 37.93325 | -120.88309 | 16036 ft | 360 kts | 311° |
| 2026-05-05 01:47 | 37.94846 | -120.90829 | 15807 ft | 351 kts | 308° |
| 2026-05-05 01:47 | 37.96446 | -120.93143 | 15271 ft | 346 kts | 322° |
| 2026-05-05 01:47 | 37.98550 | -120.94591 | 14594 ft | 343 kts | 346° |
| 2026-05-05 01:47 | 38.00888 | -120.95184 | 14108 ft | 337 kts | 347° |
| 2026-05-05 01:48 | 38.03076 | -120.96240 | 13648 ft | 334 kts | 332° |
| 2026-05-05 01:48 | 38.05003 | -120.97969 | 13189 ft | 332 kts | 320° |
| 2026-05-05 01:48 | 38.06756 | -120.99921 | 12680 ft | 329 kts | 317° |
| 2026-05-05 01:48 | 38.08356 | -121.02027 | 12221 ft | 327 kts | 313° |
| 2026-05-05 01:49 | 38.09865 | -121.04152 | 11706 ft | 323 kts | 313° |
| 2026-05-05 01:49 | 38.11371 | -121.06310 | 11208 ft | 320 kts | 313° |
| 2026-05-05 01:49 | 38.12852 | -121.08446 | 10720 ft | 318 kts | 312° |
| 2026-05-05 01:49 | 38.14301 | -121.10559 | 10418 ft | 308 kts | 312° |
| 2026-05-05 01:50 | 38.15660 | -121.12548 | 10279 ft | 288 kts | 312° |
| 2026-05-05 01:50 | 38.16983 | -121.14489 | 10215 ft | 288 kts | 312° |
| 2026-05-05 01:50 | 38.18313 | -121.16447 | 9965 ft | 289 kts | 312° |
| 2026-05-05 01:50 | 38.19625 | -121.18379 | 9558 ft | 285 kts | 312° |
| 2026-05-05 01:51 | 38.20941 | -121.20312 | 9189 ft | 283 kts | 312° |
| 2026-05-05 01:51 | 38.22259 | -121.22150 | 8972 ft | 278 kts | 316° |
| 2026-05-05 01:51 | 38.23660 | -121.23902 | 8957 ft | 282 kts | 316° |
| 2026-05-05 01:51 | 38.25088 | -121.25697 | 8953 ft | 283 kts | 316° |
| 2026-05-05 01:52 | 38.26482 | -121.27464 | 8960 ft | 282 kts | 316° |
| 2026-05-05 01:52 | 38.27883 | -121.29246 | 9086 ft | 284 kts | 316° |
| 2026-05-05 01:52 | 38.29310 | -121.31052 | 8951 ft | 280 kts | 316° |
| 2026-05-05 01:52 | 38.30696 | -121.32801 | 8947 ft | 280 kts | 316° |
| 2026-05-05 01:53 | 38.32108 | -121.34592 | 8951 ft | 281 kts | 316° |
| 2026-05-05 01:53 | 38.33512 | -121.36378 | 8953 ft | 281 kts | 316° |
| 2026-05-05 01:53 | 38.34904 | -121.38147 | 8956 ft | 281 kts | 316° |
| 2026-05-05 01:53 | 38.36281 | -121.39896 | 8942 ft | 275 kts | 316° |
| 2026-05-05 01:54 | 38.37612 | -121.41592 | 8954 ft | 259 kts | 316° |
| 2026-05-05 01:54 | 38.38855 | -121.43169 | 8953 ft | 243 kts | 317° |
| 2026-05-05 01:54 | 38.40051 | -121.44686 | 8960 ft | 237 kts | 316° |
| 2026-05-05 01:54 | 38.41223 | -121.46179 | 8962 ft | 237 kts | 316° |
| 2026-05-05 01:55 | 38.42397 | -121.47671 | 8962 ft | 237 kts | 316° |
| 2026-05-05 01:55 | 38.43579 | -121.49179 | 8952 ft | 237 kts | 316° |
| 2026-05-05 01:55 | 38.44759 | -121.50684 | 8887 ft | 238 kts | 316° |
| 2026-05-05 01:55 | 38.45948 | -121.52201 | 8571 ft | 241 kts | 316° |
| 2026-05-05 01:56 | 38.47132 | -121.53705 | 8269 ft | 238 kts | 317° |
| 2026-05-05 01:56 | 38.48387 | -121.55090 | 7972 ft | 237 kts | 323° |
| 2026-05-05 01:56 | 38.49717 | -121.56396 | 7646 ft | 235 kts | 322° |
| 2026-05-05 01:56 | 38.50994 | -121.57671 | 7381 ft | 228 kts | 322° |
| 2026-05-05 01:57 | 38.52239 | -121.58926 | 7094 ft | 223 kts | 322° |
| 2026-05-05 01:57 | 38.53462 | -121.60147 | 6815 ft | 218 kts | 321° |
| 2026-05-05 01:57 | 38.54651 | -121.61340 | 6550 ft | 211 kts | 321° |
| 2026-05-05 01:57 | 38.55790 | -121.62489 | 6287 ft | 204 kts | 321° |
| 2026-05-05 01:58 | 38.56909 | -121.63618 | 6016 ft | 198 kts | 321° |
| 2026-05-05 01:58 | 38.57993 | -121.64695 | 5771 ft | 196 kts | 324° |
| 2026-05-05 01:58 | 38.59251 | -121.65398 | 5525 ft | 197 kts | 343° |
| 2026-05-05 01:58 | 38.60591 | -121.65871 | 5270 ft | 198 kts | 341° |
| 2026-05-05 01:59 | 38.61919 | -121.66386 | 5006 ft | 196 kts | 341° |
| 2026-05-05 01:59 | 38.63261 | -121.66898 | 4756 ft | 195 kts | 342° |
| 2026-05-05 01:59 | 38.64561 | -121.67397 | 4516 ft | 195 kts | 341° |
| 2026-05-05 01:59 | 38.65873 | -121.67902 | 4316 ft | 192 kts | 341° |
| 2026-05-05 02:00 | 38.67162 | -121.68400 | 4207 ft | 192 kts | 341° |
| 2026-05-05 02:00 | 38.68476 | -121.68908 | 4156 ft | 197 kts | 341° |
| 2026-05-05 02:00 | 38.69793 | -121.69410 | 4068 ft | 193 kts | 341° |
| 2026-05-05 02:00 | 38.71098 | -121.69910 | 3998 ft | 194 kts | 341° |
| 2026-05-05 02:01 | 38.72441 | -121.70173 | 3771 ft | 195 kts | 8° |
| 2026-05-05 02:01 | 38.73701 | -121.69622 | 3573 ft | 185 kts | 15° |
| 2026-05-05 02:01 | 38.74932 | -121.69566 | 3369 ft | 170 kts | 343° |
| 2026-05-05 02:01 | 38.76062 | -121.69885 | 3185 ft | 162 kts | 358° |
| 2026-05-05 02:02 | 38.77180 | -121.69559 | 3056 ft | 168 kts | 22° |
| 2026-05-05 02:02 | 38.78205 | -121.68816 | 2776 ft | 165 kts | 37° |
| 2026-05-05 02:02 | 38.79004 | -121.67769 | 2598 ft | 164 kts | 56° |
| 2026-05-05 02:02 | 38.79520 | -121.66460 | 2380 ft | 165 kts | 74° |
| 2026-05-05 02:03 | 38.79705 | -121.65045 | 2113 ft | 156 kts | 92° |
| 2026-05-05 02:03 | 38.79578 | -121.63660 | 1969 ft | 155 kts | 108° |
| 2026-05-05 02:03 | 38.79149 | -121.62370 | 1728 ft | 153 kts | 124° |
| 2026-05-05 02:03 | 38.78486 | -121.61336 | 1544 ft | 148 kts | 140° |
| 2026-05-05 02:04 | 38.77632 | -121.60568 | 1411 ft | 148 kts | 154° |
| 2026-05-05 02:04 | 38.76659 | -121.60126 | 1191 ft | 146 kts | 169° |
| 2026-05-05 02:04 | 38.75653 | -121.60041 | 1075 ft | 140 kts | 183° |
| 2026-05-05 02:04 | 38.74627 | -121.60092 | 1090 ft | 148 kts | 179° |
| 2026-05-05 02:05 | 38.73593 | -121.60098 | 892 ft | 146 kts | 181° |
| 2026-05-05 02:05 | 38.72572 | -121.60126 | 678 ft | 147 kts | 179° |
| 2026-05-05 02:05 | 38.71551 | -121.60123 | 376 ft | 146 kts | 178° |
| 2026-05-05 02:05 | 38.70534 | -121.60113 | 44 ft | 141 kts | 177° |
| 2026-05-05 02:06 | 38.69622 | -121.60129 | 29 ft | 114 kts | 183° |
| 2026-05-05 02:06 | 38.68967 | -121.60134 | 29 ft | 57 kts | 178° |
| 2026-05-05 02:06 | 38.68678 | -121.60143 | 28 ft | 36 kts | 183° |
| 2026-05-05 02:06 | 38.68453 | -121.60148 | 27 ft | 24 kts | 174° |
| 2026-05-05 02:07 | 38.68386 | -121.60027 | 27 ft | 14 kts | 94° |
| 2026-05-05 02:07 | 38.68387 | -121.59925 | 27 ft | 8 kts | 70° |
| 2026-05-05 02:07 | 38.68439 | -121.59887 | 27 ft | 8 kts | 9° |
| 2026-05-05 02:07 | 38.68510 | -121.59882 | 28 ft | 14 kts | 2° |
| 2026-05-05 02:08 | 38.68627 | -121.59882 | 28 ft | 19 kts | 0° |
| 2026-05-05 02:08 | 38.68774 | -121.59879 | 28 ft | 18 kts | 1° |
| 2026-05-05 02:08 | 38.68880 | -121.59876 | 29 ft | 12 kts | 1° |
| 2026-05-05 02:08 | 38.68955 | -121.59874 | 29 ft | 9 kts | 360° |
| 2026-05-05 02:09 | 38.69027 | -121.59875 | 29 ft | 10 kts | 0° |
| 2026-05-05 02:09 | 38.69141 | -121.59872 | 29 ft | 20 kts | 360° |
| 2026-05-05 02:09 | 38.69276 | -121.59869 | 30 ft | 16 kts | 2° |
| 2026-05-05 02:09 | 38.69374 | -121.59864 | 30 ft | 13 kts | 3° |
| 2026-05-05 02:10 | 38.69459 | -121.59824 | 30 ft | 13 kts | 64° |
| 2026-05-05 02:10 | 38.69473 | -121.59704 | 30 ft | 13 kts | 91° |
| 2026-05-05 02:10 | 38.69505 | -121.59602 | 31 ft | 9 kts | 27° |
| 2026-05-05 02:10 | 38.69548 | -121.59554 | 31 ft | 5 kts | 83° |
| 2026-05-05 02:11 | 38.69547 | -121.59533 | 31 ft | 3 kts | 98° |
| 2026-05-05 02:11 | 38.69546 | -121.59530 | 31 ft | 0 kts | 95° |